Time;durP1;ratioP1;P1;durP2;ratioP2;P2;SDS_P1;SDS_P2;PMS_P1;PMS_P2;Temp;Humidity;BMP_temperature;BMP_pressure;BME280_temperature;BME280_humidity;BME280_pressure;Samples;Min_cycle;Max_cycle;Signal;HPM_P1;HPM_P2
2023/07/27 00:00:11;;;;;;;0.20;0.20;;;17.10;99.90;;;;;;5083110;28;20047;-75
2023/07/27 00:02:36;;;;;;;0.17;0.17;;;17.30;99.90;;;;;;5086883;28;20177;-75
2023/07/27 00:05:03;;;;;;;0.00;0.00;;;17.00;99.90;;;;;;5092577;28;20059;-75
2023/07/27 00:07:29;;;;;;;0.20;0.20;;;17.20;99.90;;;;;;5093792;28;20103;-75
2023/07/27 00:09:54;;;;;;;0.00;0.00;;;17.30;99.90;;;;;;5096425;28;20051;-75
2023/07/27 00:12:21;;;;;;;0.77;0.77;;;17.20;99.90;;;;;;5096538;28;20046;-75
2023/07/27 00:14:48;;;;;;;7.90;1.38;;;17.30;99.90;;;;;;5096080;28;20023;-75
2023/07/27 00:17:14;;;;;;;0.10;0.10;;;17.10;99.90;;;;;;5091606;28;20440;-74
2023/07/27 00:19:39;;;;;;;0.30;0.30;;;17.10;99.90;;;;;;5087014;28;20055;-75
2023/07/27 00:22:05;;;;;;;0.68;0.68;;;17.10;99.90;;;;;;5096059;28;20468;-75
2023/07/27 00:24:31;;;;;;;0.30;0.30;;;16.80;99.90;;;;;;5096267;28;20039;-75
2023/07/27 00:26:57;;;;;;;0.10;0.10;;;16.60;99.90;;;;;;5096077;28;20024;-75
2023/07/27 00:29:22;;;;;;;1.27;1.02;;;16.70;99.90;;;;;;5094703;28;20373;-75
2023/07/27 00:31:50;;;;;;;0.20;0.20;;;16.50;99.90;;;;;;5094623;28;20036;-75
2023/07/27 00:34:16;;;;;;;0.10;0.10;;;16.40;99.90;;;;;;5095990;28;20495;-76
2023/07/27 00:36:42;;;;;;;0.10;0.10;;;16.40;99.90;;;;;;5094686;28;20056;-76
2023/07/27 00:39:08;;;;;;;0.10;0.10;;;16.40;99.90;;;;;;5094664;28;20051;-75
2023/07/27 00:41:33;;;;;;;0.43;0.43;;;16.40;99.90;;;;;;5095902;28;20062;-74
2023/07/27 00:43:59;;;;;;;0.52;0.30;;;16.30;99.90;;;;;;5095534;28;20051;-75
2023/07/27 00:46:25;;;;;;;0.43;0.43;;;16.30;99.90;;;;;;5094475;28;20028;-75
2023/07/27 00:48:51;;;;;;;0.30;0.30;;;16.20;99.90;;;;;;5094665;28;20024;-75
2023/07/27 00:51:17;;;;;;;0.20;0.20;;;16.10;99.90;;;;;;5095403;28;20150;-76
2023/07/27 00:53:43;;;;;;;1.10;0.82;;;16.20;99.90;;;;;;5094635;28;20020;-75
2023/07/27 00:56:09;;;;;;;0.38;0.38;;;16.20;99.90;;;;;;5094285;28;20020;-75
2023/07/27 00:58:36;;;;;;;0.10;0.10;;;16.10;99.90;;;;;;5077179;28;20495;-76
2023/07/27 01:01:03;;;;;;;0.10;0.10;;;16.10;99.90;;;;;;5094175;28;20024;-75
2023/07/27 01:03:28;;;;;;;1.95;0.60;;;16.10;99.90;;;;;;5095427;28;20071;-75
2023/07/27 01:05:54;;;;;;;0.93;0.20;;;16.00;99.90;;;;;;5095526;28;20059;-75
2023/07/27 01:08:20;;;;;;;0.10;0.10;;;15.90;99.90;;;;;;5095175;28;20032;-75
2023/07/27 01:11:19;;;;;;;0.25;0.22;;;16.00;99.90;;;;;;5094211;28;20392;-75
2023/07/27 01:13:56;;;;;;;0.25;0.25;;;15.90;99.90;;;;;;5094964;28;20066;-75
2023/07/27 01:16:33;;;;;;;2.78;0.98;;;16.10;99.90;;;;;;5093950;28;20048;-74
2023/07/27 01:19:31;;;;;;;0.32;0.32;;;16.00;99.90;;;;;;5079605;28;20020;-75
2023/07/27 01:22:38;;;;;;;6.68;0.98;;;15.90;99.90;;;;;;5093438;28;20036;-75
2023/07/27 01:25:09;;;;;;;3.60;1.55;;;15.80;99.90;;;;;;5089976;28;20546;-75
2023/07/27 01:27:53;;;;;;;0.60;0.60;;;15.80;99.90;;;;;;5093303;28;20120;-74
2023/07/27 01:30:28;;;;;;;0.52;0.52;;;15.90;99.90;;;;;;5095006;28;20488;-74
2023/07/27 01:33:03;;;;;;;1.55;0.52;;;15.90;99.90;;;;;;5095273;28;20122;-75
2023/07/27 01:35:37;;;;;;;0.77;0.38;;;15.80;99.90;;;;;;5093492;28;20024;-74
2023/07/27 01:38:04;;;;;;;0.93;0.40;;;15.80;99.90;;;;;;5089573;28;21221;-75
2023/07/27 01:40:32;;;;;;;0.43;0.43;;;15.90;99.90;;;;;;5074419;28;20081;-75
2023/07/27 01:42:59;;;;;;;0.10;0.10;;;16.00;99.90;;;;;;5076322;28;20036;-75
2023/07/27 01:45:24;;;;;;;0.32;0.32;;;16.00;99.90;;;;;;5089662;28;20465;-75
2023/07/27 01:47:52;;;;;;;0.98;0.57;;;16.00;99.90;;;;;;5080544;28;20074;-74
2023/07/27 01:50:19;;;;;;;2.08;1.00;;;16.10;99.90;;;;;;5093255;28;20530;-75
2023/07/27 01:52:46;;;;;;;1.83;0.40;;;16.10;99.90;;;;;;5093300;28;20028;-75
2023/07/27 01:55:15;;;;;;;0.30;0.30;;;15.90;99.90;;;;;;5088490;28;20028;-75
2023/07/27 01:57:44;;;;;;;1.55;1.20;;;16.00;99.90;;;;;;5084999;28;20028;-74
2023/07/27 02:00:11;;;;;;;2.03;1.40;;;15.90;99.90;;;;;;5093067;28;20073;-74
2023/07/27 02:02:40;;;;;;;1.30;0.98;;;15.90;99.90;;;;;;5092414;28;20507;-72
2023/07/27 02:05:08;;;;;;;2.15;0.63;;;15.90;99.90;;;;;;5074234;28;20036;-75
2023/07/27 02:07:36;;;;;;;0.45;0.45;;;16.00;99.90;;;;;;5080615;28;20024;-73
2023/07/27 02:10:02;;;;;;;0.65;0.40;;;16.00;99.90;;;;;;5070242;28;20028;-73
2023/07/27 02:12:38;;;;;;;1.08;0.98;;;16.10;99.90;;;;;;5073868;28;20088;-75
2023/07/27 02:15:24;;;;;;;0.10;0.10;;;16.00;99.90;;;;;;5086315;28;20051;-75
2023/07/27 02:17:57;;;;;;;3.03;1.95;;;16.00;99.90;;;;;;5077819;28;20012;-74
2023/07/27 02:20:25;;;;;;;1.50;1.40;;;16.10;99.90;;;;;;5087825;28;20024;-73
2023/07/27 02:22:52;;;;;;;2.63;1.48;;;16.00;99.90;;;;;;5092872;28;20020;-74
2023/07/27 02:25:18;;;;;;;1.35;1.25;;;16.00;99.90;;;;;;5093533;28;20028;-73
2023/07/27 02:27:44;;;;;;;1.02;0.82;;;16.00;99.90;;;;;;5093840;28;20361;-74
2023/07/27 02:30:11;;;;;;;1.67;0.85;;;16.00;99.90;;;;;;5092103;28;20024;-74
2023/07/27 02:32:36;;;;;;;0.52;0.52;;;15.90;99.90;;;;;;5093718;28;20126;-75
2023/07/27 02:35:02;;;;;;;6.32;2.03;;;16.00;99.90;;;;;;5092423;28;20027;-75
2023/07/27 02:37:28;;;;;;;8.48;1.42;;;16.00;99.90;;;;;;5092303;28;20032;-74
2023/07/27 02:39:54;;;;;;;4.70;1.80;;;16.00;99.90;;;;;;5092147;28;20016;-74
2023/07/27 02:42:20;;;;;;;2.75;1.92;;;15.90;99.90;;;;;;5092386;28;20027;-74
2023/07/27 02:44:46;;;;;;;2.70;1.67;;;15.90;99.90;;;;;;5092329;28;20024;-74
2023/07/27 02:47:12;;;;;;;3.08;1.90;;;15.90;99.90;;;;;;5082172;28;20016;-74
2023/07/27 02:49:38;;;;;;;1.77;0.98;;;15.90;99.90;;;;;;5089204;28;20027;-75
2023/07/27 02:52:04;;;;;;;2.50;1.67;;;15.90;99.90;;;;;;5092313;28;20492;-73
2023/07/27 02:54:30;;;;;;;1.00;0.82;;;15.90;99.90;;;;;;5091806;28;20059;-75
2023/07/27 02:56:56;;;;;;;1.40;1.20;;;15.90;99.90;;;;;;5092329;28;20028;-75
2023/07/27 02:59:28;;;;;;;1.13;1.02;;;16.00;99.90;;;;;;5091832;28;20020;-72
2023/07/27 03:01:53;;;;;;;0.95;0.77;;;16.10;99.90;;;;;;5092067;28;20023;-75
2023/07/27 03:04:25;;;;;;;1.45;1.08;;;16.10;99.90;;;;;;5091811;28;20032;-75
2023/07/27 03:06:51;;;;;;;2.53;1.15;;;16.20;99.90;;;;;;5092061;28;20020;-75
2023/07/27 03:09:20;;;;;;;1.88;1.40;;;16.10;99.90;;;;;;5091485;28;20031;-75
2023/07/27 03:11:45;;;;;;;6.65;1.73;;;16.20;99.90;;;;;;5091761;28;20032;-75
2023/07/27 03:14:11;;;;;;;2.40;1.42;;;16.10;99.90;;;;;;5092967;28;20073;-74
2023/07/27 03:16:37;;;;;;;0.32;0.22;;;16.20;99.90;;;;;;5091848;28;20028;-75
2023/07/27 03:19:03;;;;;;;3.33;1.40;;;16.20;99.90;;;;;;5091802;28;20020;-75
2023/07/27 03:21:28;;;;;;;2.83;1.13;;;16.30;99.90;;;;;;5092938;28;20032;-74
2023/07/27 03:23:54;;;;;;;0.65;0.63;;;16.20;99.90;;;;;;5092711;28;20012;-75
2023/07/27 03:26:20;;;;;;;0.10;0.10;;;16.20;99.90;;;;;;5091769;28;20024;-74
2023/07/27 03:28:46;;;;;;;1.90;1.70;;;16.20;99.90;;;;;;5090399;28;20365;-75
2023/07/27 03:31:20;;;;;;;0.30;0.30;;;16.30;99.90;;;;;;5082088;28;20036;-75
2023/07/27 03:33:49;;;;;;;1.60;1.23;;;16.30;99.90;;;;;;5091421;28;20028;-74
2023/07/27 03:36:16;;;;;;;0.43;0.30;;;16.20;99.90;;;;;;5074841;28;20023;-73
2023/07/27 03:38:42;;;;;;;5.20;2.33;;;16.20;99.90;;;;;;5091204;28;20030;-75
2023/07/27 03:41:08;;;;;;;0.43;0.43;;;16.20;99.90;;;;;;5092983;28;20111;-74
2023/07/27 03:43:34;;;;;;;0.95;0.95;;;16.30;99.90;;;;;;5094720;28;20103;-75
2023/07/27 03:46:00;;;;;;;0.57;0.57;;;16.40;99.90;;;;;;5094551;28;20131;-75
2023/07/27 03:48:26;;;;;;;1.38;0.82;;;16.30;99.90;;;;;;5082760;28;20031;-75
2023/07/27 03:50:52;;;;;;;0.93;0.70;;;16.30;99.90;;;;;;5096815;28;20031;-74
2023/07/27 03:53:19;;;;;;;0.10;0.10;;;16.30;99.90;;;;;;5096537;28;20032;-74
2023/07/27 03:55:45;;;;;;;3.63;1.02;;;16.40;99.90;;;;;;5096794;28;20097;-75
2023/07/27 03:58:11;;;;;;;0.75;0.47;;;16.40;99.90;;;;;;5095341;28;20052;-70
2023/07/27 04:00:36;;;;;;;0.35;0.35;;;16.40;99.90;;;;;;5095323;28;20472;-75
2023/07/27 04:03:02;;;;;;;0.50;0.50;;;16.50;99.90;;;;;;5095265;28;20084;-75
2023/07/27 04:05:30;;;;;;;15.18;1.10;;;16.60;99.90;;;;;;5096495;28;20380;-75
2023/07/27 04:07:56;;;;;;;1.00;0.63;;;16.60;99.90;;;;;;5094856;28;20028;-75
2023/07/27 04:10:21;;;;;;;1.17;0.95;;;16.50;99.90;;;;;;5096359;28;20145;-74
2023/07/27 04:12:47;;;;;;;3.20;1.15;;;16.50;99.90;;;;;;5095286;28;20089;-75
2023/07/27 04:15:13;;;;;;;0.00;0.00;;;16.50;99.90;;;;;;5094804;28;20020;-73
2023/07/27 04:17:38;;;;;;;0.10;0.10;;;16.50;99.90;;;;;;5096386;28;20036;-75
2023/07/27 04:20:04;;;;;;;0.32;0.32;;;16.50;99.90;;;;;;5094878;28;20024;-75
2023/07/27 04:22:30;;;;;;;0.17;0.17;;;16.60;99.90;;;;;;5094562;28;20035;-74
2023/07/27 04:24:56;;;;;;;0.35;0.32;;;16.70;99.90;;;;;;5095008;28;20024;-74
2023/07/27 04:27:22;;;;;;;0.52;0.52;;;16.60;99.90;;;;;;5095817;28;20034;-75
2023/07/27 04:29:47;;;;;;;0.40;0.40;;;16.70;99.90;;;;;;5094700;28;20365;-74
2023/07/27 04:32:13;;;;;;;0.32;0.32;;;16.70;99.90;;;;;;5095626;28;20032;-75
2023/07/27 04:34:39;;;;;;;0.10;0.10;;;16.70;99.90;;;;;;5094377;28;20361;-75
2023/07/27 04:37:04;;;;;;;1.08;0.35;;;16.80;99.90;;;;;;5094156;28;20040;-73
2023/07/27 04:39:30;;;;;;;0.95;0.57;;;16.80;99.90;;;;;;5095959;28;20016;-75
2023/07/27 04:41:56;;;;;;;0.65;0.55;;;16.80;99.90;;;;;;5096013;28;20024;-75
2023/07/27 04:44:22;;;;;;;0.40;0.40;;;16.80;99.90;;;;;;5094395;28;20027;-73
2023/07/27 04:46:48;;;;;;;0.35;0.35;;;16.90;99.90;;;;;;5087848;28;20028;-75
2023/07/27 04:49:13;;;;;;;0.10;0.10;;;16.80;99.90;;;;;;5088463;28;20061;-74
2023/07/27 04:51:39;;;;;;;0.10;0.10;;;16.90;99.90;;;;;;5095243;28;20392;-75
2023/07/27 04:54:05;;;;;;;0.82;0.82;;;16.90;99.90;;;;;;5095613;28;20027;-75
2023/07/27 04:56:31;;;;;;;2.05;0.73;;;17.00;99.90;;;;;;5094099;28;20463;-73
2023/07/27 04:58:57;;;;;;;0.25;0.20;;;17.00;99.90;;;;;;5094335;28;20020;-74
2023/07/27 05:01:23;;;;;;;2.88;1.00;;;17.00;99.90;;;;;;5084312;28;20024;-74
2023/07/27 05:03:48;;;;;;;0.30;0.30;;;17.00;99.90;;;;;;5081810;28;20028;-75
2023/07/27 05:06:14;;;;;;;1.80;0.65;;;16.90;99.90;;;;;;5074711;28;20029;-75
2023/07/27 05:08:40;;;;;;;0.55;0.55;;;17.20;99.90;;;;;;5074981;28;20507;-75
2023/07/27 05:11:06;;;;;;;0.10;0.10;;;17.30;99.90;;;;;;5075049;28;20562;-75
2023/07/27 05:13:35;;;;;;;0.60;0.55;;;17.20;99.90;;;;;;5074712;28;20139;-74
2023/07/27 05:16:01;;;;;;;0.10;0.10;;;17.20;99.90;;;;;;5075061;28;20067;-75
2023/07/27 05:18:27;;;;;;;0.88;0.82;;;17.20;99.90;;;;;;5074848;28;20024;-75
2023/07/27 05:20:54;;;;;;;0.20;0.20;;;17.30;99.90;;;;;;5074775;28;20044;-75
2023/07/27 05:23:19;;;;;;;1.08;0.77;;;17.20;99.90;;;;;;5073354;28;20174;-74
2023/07/27 05:25:46;;;;;;;4.00;1.65;;;17.20;99.90;;;;;;5074908;28;20112;-74
2023/07/27 05:28:12;;;;;;;0.40;0.40;;;17.20;99.90;;;;;;5074714;28;20013;-75
2023/07/27 05:30:38;;;;;;;1.95;1.75;;;17.30;99.90;;;;;;5074565;28;20427;-75
2023/07/27 05:33:04;;;;;;;2.13;1.10;;;17.30;99.90;;;;;;5074666;28;20042;-73
2023/07/27 05:35:29;;;;;;;0.40;0.40;;;17.40;99.90;;;;;;5074453;28;20047;-74
2023/07/27 05:37:55;;;;;;;1.50;0.73;;;17.50;99.90;;;;;;5074683;28;20442;-74
2023/07/27 05:40:21;;;;;;;1.27;0.25;;;17.50;99.90;;;;;;5074502;28;20082;-74
2023/07/27 05:42:47;;;;;;;0.32;0.32;;;17.60;99.90;;;;;;5074431;28;20024;-75
2023/07/27 05:45:12;;;;;;;3.75;1.33;;;17.60;99.90;;;;;;5073182;28;20047;-73
2023/07/27 05:47:38;;;;;;;1.17;0.90;;;17.70;99.90;;;;;;5074783;28;20036;-74
2023/07/27 05:50:05;;;;;;;1.70;0.98;;;17.60;99.90;;;;;;5094744;28;20031;-75
2023/07/27 05:52:30;;;;;;;1.85;0.90;;;17.60;99.90;;;;;;5094903;28;20467;-75
2023/07/27 05:54:56;;;;;;;1.58;1.20;;;17.70;99.90;;;;;;5093073;28;20031;-75
2023/07/27 05:57:22;;;;;;;0.08;0.08;;;17.60;99.90;;;;;;5094381;28;20032;-73
2023/07/27 05:59:48;;;;;;;0.10;0.10;;;17.60;99.90;;;;;;5094315;28;20366;-75
2023/07/27 06:02:13;;;;;;;0.20;0.20;;;17.80;99.90;;;;;;5093936;28;20039;-73
2023/07/27 06:04:39;;;;;;;0.60;0.60;;;17.80;99.90;;;;;;5092620;28;20028;-73
2023/07/27 06:07:05;;;;;;;0.30;0.30;;;17.80;99.90;;;;;;5082882;28;20036;-72
2023/07/27 06:09:31;;;;;;;0.10;0.10;;;17.60;99.90;;;;;;5077909;28;20036;-72
2023/07/27 06:11:57;;;;;;;2.55;1.17;;;18.00;99.90;;;;;;5076176;28;20040;-73
2023/07/27 06:14:23;;;;;;;0.25;0.25;;;17.90;99.90;;;;;;5078172;28;20069;-72
2023/07/27 06:16:49;;;;;;;0.70;0.55;;;17.90;99.90;;;;;;5078145;28;20020;-73
2023/07/27 06:19:15;;;;;;;0.85;0.45;;;18.00;99.90;;;;;;5072852;28;20408;-75
2023/07/27 06:21:40;;;;;;;1.73;1.10;;;17.90;99.90;;;;;;5080954;28;20033;-74
2023/07/27 06:24:08;;;;;;;0.00;0.00;;;17.70;99.90;;;;;;5079240;28;20040;-75
2023/07/27 06:26:34;;;;;;;2.30;1.48;;;17.70;99.90;;;;;;5077509;28;20476;-75
2023/07/27 06:29:00;;;;;;;1.45;1.05;;;17.70;99.90;;;;;;5056475;28;20252;-75
2023/07/27 06:31:26;;;;;;;0.93;0.77;;;17.80;99.90;;;;;;5075868;28;20462;-74
2023/07/27 06:33:51;;;;;;;4.85;0.63;;;17.80;99.90;;;;;;5080205;28;20028;-75
2023/07/27 06:36:17;;;;;;;0.00;0.00;;;17.90;99.90;;;;;;5077013;28;20060;-74
2023/07/27 06:38:43;;;;;;;0.30;0.30;;;17.90;99.90;;;;;;5080710;28;20461;-75
2023/07/27 06:41:09;;;;;;;0.65;0.50;;;18.00;99.90;;;;;;5073479;28;20027;-76
2023/07/27 06:43:35;;;;;;;0.80;0.50;;;17.90;99.90;;;;;;5073519;28;20086;-75
2023/07/27 06:46:01;;;;;;;1.17;1.05;;;17.80;99.90;;;;;;5082172;28;20471;-74
2023/07/27 06:48:26;;;;;;;2.28;1.05;;;17.90;99.90;;;;;;5091480;28;20032;-73
2023/07/27 06:50:52;;;;;;;3.60;0.55;;;17.80;99.90;;;;;;5092528;28;20028;-75
2023/07/27 06:53:18;;;;;;;0.50;0.50;;;17.90;99.90;;;;;;5085832;28;20430;-73
2023/07/27 06:55:44;;;;;;;1.40;0.98;;;18.00;99.90;;;;;;5071780;28;20033;-75
2023/07/27 06:58:09;;;;;;;0.50;0.43;;;18.10;99.90;;;;;;5084496;28;20023;-74
2023/07/27 07:00:35;;;;;;;0.63;0.63;;;17.90;99.90;;;;;;5085219;28;20058;-75
2023/07/27 07:03:01;;;;;;;0.28;0.28;;;18.00;99.90;;;;;;5062544;28;20032;-74
2023/07/27 07:05:27;;;;;;;0.38;0.38;;;18.20;99.90;;;;;;5081419;28;20430;-73
2023/07/27 07:07:53;;;;;;;0.65;0.63;;;18.20;99.90;;;;;;5077363;28;20021;-74
2023/07/27 07:10:18;;;;;;;0.50;0.47;;;18.10;99.90;;;;;;5084723;28;20055;-76
2023/07/27 07:12:44;;;;;;;1.70;0.95;;;18.00;99.90;;;;;;5084589;28;20031;-74
2023/07/27 07:15:10;;;;;;;1.10;0.68;;;17.70;99.90;;;;;;5077707;28;20465;-75
2023/07/27 07:17:36;;;;;;;0.40;0.40;;;17.80;99.90;;;;;;5071513;28;20052;-75
2023/07/27 07:20:08;;;;;;;0.75;0.65;;;17.80;99.90;;;;;;5072176;28;20358;-76
2023/07/27 07:22:34;;;;;;;0.10;0.10;;;17.80;99.90;;;;;;5079935;28;20082;-77
2023/07/27 07:25:00;;;;;;;0.35;0.35;;;17.80;99.90;;;;;;5072221;28;20432;-78
2023/07/27 07:27:26;;;;;;;0.32;0.32;;;17.90;99.90;;;;;;5072734;28;20113;-77
2023/07/27 07:29:52;;;;;;;0.40;0.38;;;17.90;99.90;;;;;;5071022;28;20078;-77
2023/07/27 07:32:17;;;;;;;0.40;0.40;;;17.80;99.90;;;;;;5090089;28;20035;-76
2023/07/27 07:34:43;;;;;;;1.75;0.90;;;17.90;99.90;;;;;;5081739;28;20480;-77
2023/07/27 07:37:09;;;;;;;4.55;1.10;;;17.80;99.90;;;;;;5071974;28;20036;-76
2023/07/27 07:39:34;;;;;;;1.00;0.70;;;17.70;99.90;;;;;;5072499;28;20020;-77
2023/07/27 07:42:00;;;;;;;0.10;0.10;;;17.70;99.90;;;;;;5072609;28;20393;-77
2023/07/27 07:44:26;;;;;;;0.65;0.50;;;17.80;99.90;;;;;;5072271;28;20012;-77
2023/07/27 07:46:52;;;;;;;11.48;0.98;;;17.90;99.90;;;;;;5072410;28;20064;-77
2023/07/27 07:49:18;;;;;;;1.10;0.88;;;18.00;99.90;;;;;;5087016;28;20422;-76
2023/07/27 07:51:44;;;;;;;0.85;0.65;;;18.00;99.90;;;;;;5092631;28;20500;-77
2023/07/27 07:54:09;;;;;;;0.47;0.47;;;18.20;99.90;;;;;;5092757;28;20377;-78
2023/07/27 07:56:36;;;;;;;1.20;1.10;;;18.10;99.90;;;;;;5092360;28;20142;-77
2023/07/27 07:59:02;;;;;;;5.75;2.75;;;18.00;99.90;;;;;;5092522;28;20024;-77
2023/07/27 08:01:28;;;;;;;1.30;0.65;;;18.00;99.90;;;;;;5092312;28;20032;-77
2023/07/27 08:03:54;;;;;;;0.32;0.25;;;18.00;99.90;;;;;;5092472;28;20130;-77
2023/07/27 08:06:19;;;;;;;1.23;0.60;;;18.00;99.90;;;;;;5092921;28;20077;-77
2023/07/27 08:08:46;;;;;;;0.10;0.10;;;18.00;99.90;;;;;;5092499;28;20016;-77
2023/07/27 08:11:11;;;;;;;0.75;0.40;;;18.10;99.90;;;;;;5092483;28;20040;-78
2023/07/27 08:13:37;;;;;;;3.70;0.45;;;18.40;99.90;;;;;;5091864;28;20043;-76
2023/07/27 08:16:03;;;;;;;0.52;0.52;;;18.40;99.90;;;;;;5092643;28;20034;-78
2023/07/27 08:18:30;;;;;;;3.55;1.75;;;18.30;99.90;;;;;;5092484;28;20412;-76
2023/07/27 08:21:04;;;;;;;0.63;0.43;;;18.10;99.90;;;;;;5092430;28;20036;-76
2023/07/27 08:23:30;;;;;;;0.65;0.30;;;18.10;99.90;;;;;;5092345;28;20111;-78
2023/07/27 08:26:00;;;;;;;3.47;0.80;;;18.10;99.90;;;;;;5092427;28;20103;-77
2023/07/27 08:28:26;;;;;;;0.90;0.75;;;18.20;99.90;;;;;;5093321;28;20057;-77
2023/07/27 08:30:52;;;;;;;0.10;0.10;;;18.10;99.90;;;;;;5092569;28;20476;-78
2023/07/27 08:33:19;;;;;;;1.00;0.63;;;18.20;99.90;;;;;;5096157;28;20030;-77
2023/07/27 08:35:45;;;;;;;0.20;0.20;;;18.30;99.90;;;;;;5095965;28;20031;-78
2023/07/27 08:38:11;;;;;;;0.47;0.38;;;18.30;99.90;;;;;;5096090;28;20069;-75
2023/07/27 08:40:37;;;;;;;0.57;0.40;;;18.40;99.90;;;;;;5096066;28;21627;-75
2023/07/27 08:43:04;;;;;;;0.85;0.82;;;18.60;99.90;;;;;;5095887;28;20035;-77
2023/07/27 08:45:30;;;;;;;0.15;0.15;;;18.40;99.90;;;;;;5095806;28;20024;-77
2023/07/27 08:47:56;;;;;;;1.25;0.70;;;18.80;99.90;;;;;;5081465;28;20042;-77
2023/07/27 08:50:22;;;;;;;3.90;1.13;;;18.80;99.90;;;;;;5095814;28;20020;-77
2023/07/27 08:52:48;;;;;;;0.43;0.40;;;18.60;99.90;;;;;;5095620;28;20032;-78
2023/07/27 08:55:15;;;;;;;0.20;0.20;;;18.60;99.90;;;;;;5096280;28;20024;-77
2023/07/27 08:57:41;;;;;;;1.33;0.73;;;18.40;99.90;;;;;;5095284;28;20074;-77
2023/07/27 09:00:12;;;;;;;0.40;0.40;;;18.40;99.90;;;;;;5077880;28;20024;-78
2023/07/27 09:02:41;;;;;;;0.70;0.50;;;18.60;99.90;;;;;;5095539;28;20065;-78
2023/07/27 09:05:09;;;;;;;0.55;0.30;;;18.50;99.90;;;;;;5095429;28;20040;-78
2023/07/27 09:07:35;;;;;;;4.47;0.55;;;18.70;99.90;;;;;;5095416;28;20464;-78
2023/07/27 09:10:09;;;;;;;0.10;0.10;;;18.80;99.90;;;;;;5095332;28;20060;-78
2023/07/27 09:12:35;;;;;;;1.00;0.45;;;19.00;99.90;;;;;;5095122;28;20032;-77
2023/07/27 09:15:12;;;;;;;0.00;0.00;;;19.00;99.90;;;;;;5093982;28;20032;-78
2023/07/27 09:17:38;;;;;;;0.60;0.45;;;18.90;99.90;;;;;;5095340;28;20035;-78
2023/07/27 09:20:09;;;;;;;0.28;0.25;;;18.90;99.90;;;;;;5095301;28;20036;-78
2023/07/27 09:22:36;;;;;;;0.10;0.10;;;18.80;99.90;;;;;;5095284;28;20035;-77
2023/07/27 09:25:02;;;;;;;0.35;0.22;;;18.70;99.90;;;;;;5095004;28;20467;-78
2023/07/27 09:27:40;;;;;;;0.63;0.63;;;18.60;99.90;;;;;;5094878;28;20119;-76
2023/07/27 09:30:06;;;;;;;0.60;0.60;;;18.70;99.90;;;;;;5095051;28;20024;-76
2023/07/27 09:32:35;;;;;;;1.73;1.63;;;18.90;99.90;;;;;;5095056;28;20075;-77
2023/07/27 09:35:01;;;;;;;2.47;0.40;;;18.80;99.90;;;;;;5095038;28;20028;-78
2023/07/27 09:37:28;;;;;;;0.30;0.30;;;18.60;99.90;;;;;;5093536;28;20418;-76
2023/07/27 09:40:09;;;;;;;0.17;0.17;;;18.50;99.90;;;;;;5093563;28;20016;-78
2023/07/27 09:42:36;;;;;;;0.57;0.40;;;18.60;99.90;;;;;;5094681;28;20028;-77
2023/07/27 09:45:02;;;;;;;0.32;0.30;;;18.60;99.90;;;;;;5093529;28;20024;-77
2023/07/27 09:47:31;;;;;;;0.55;0.43;;;18.70;99.90;;;;;;5080032;28;20456;-76
2023/07/27 09:50:00;;;;;;;0.15;0.15;;;18.90;99.90;;;;;;5094324;28;20032;-77
2023/07/27 09:52:27;;;;;;;0.30;0.30;;;19.00;99.90;;;;;;5094755;28;20393;-77
2023/07/27 09:54:58;;;;;;;0.30;0.30;;;19.10;99.90;;;;;;5094028;28;20008;-78
2023/07/27 09:57:25;;;;;;;0.20;0.20;;;19.20;99.90;;;;;;5094467;28;20036;-77
2023/07/27 09:59:51;;;;;;;1.05;0.47;;;19.10;99.90;;;;;;5094231;28;20034;-78
2023/07/27 10:02:17;;;;;;;0.08;0.08;;;19.10;99.90;;;;;;5079598;28;20480;-77
2023/07/27 10:04:46;;;;;;;0.75;0.17;;;19.20;99.90;;;;;;5078310;28;20036;-78
2023/07/27 10:07:13;;;;;;;1.77;0.38;;;19.30;99.90;;;;;;5073123;28;20032;-75
2023/07/27 10:09:38;;;;;;;0.10;0.10;;;19.00;99.90;;;;;;5073378;28;20020;-78
2023/07/27 10:12:04;;;;;;;0.82;0.43;;;19.10;99.90;;;;;;5073736;28;20400;-78
2023/07/27 10:14:32;;;;;;;0.20;0.20;;;19.00;99.90;;;;;;5073637;28;20028;-78
2023/07/27 10:17:08;;;;;;;0.20;0.17;;;18.90;99.90;;;;;;5073802;28;20035;-77
2023/07/27 10:19:43;;;;;;;0.10;0.10;;;18.90;99.90;;;;;;5073591;28;20044;-77
2023/07/27 10:22:18;;;;;;;0.43;0.40;;;18.80;99.90;;;;;;5073636;28;20056;-78
2023/07/27 10:24:56;;;;;;;0.20;0.20;;;18.60;99.90;;;;;;5073083;28;20090;-77
2023/07/27 10:27:24;;;;;;;0.10;0.10;;;18.60;99.90;;;;;;5055419;28;20035;-76
2023/07/27 10:30:08;;;;;;;0.10;0.10;;;18.80;99.90;;;;;;5073292;28;20032;-77
2023/07/27 10:32:36;;;;;;;0.40;0.40;;;18.80;99.90;;;;;;5073669;28;20044;-77
2023/07/27 10:35:07;;;;;;;0.20;0.20;;;18.90;99.90;;;;;;5073210;28;20027;-77
2023/07/27 10:37:54;;;;;;;0.38;0.30;;;19.20;99.90;;;;;;5072007;28;20111;-77
2023/07/27 10:40:29;;;;;;;0.00;0.00;;;19.10;99.90;;;;;;5072804;28;20492;-75
2023/07/27 10:42:56;;;;;;;0.20;0.20;;;19.10;99.90;;;;;;5073650;28;20024;-77
2023/07/27 10:45:26;;;;;;;0.30;0.30;;;19.10;99.90;;;;;;5073566;28;20533;-77
2023/07/27 10:47:56;;;;;;;0.40;0.40;;;19.10;99.90;;;;;;5075586;28;20540;-75
2023/07/27 10:50:23;;;;;;;0.00;0.00;;;19.00;99.90;;;;;;5093379;28;20080;-79
2023/07/27 10:52:53;;;;;;;0.50;0.50;;;19.40;99.90;;;;;;5091264;28;20035;-80
2023/07/27 10:55:22;;;;;;;1.27;0.45;;;19.20;99.90;;;;;;5084298;28;20028;-74
2023/07/27 10:57:48;;;;;;;0.20;0.20;;;19.20;99.90;;;;;;5086674;28;20028;-75
2023/07/27 11:00:14;;;;;;;0.68;0.40;;;19.20;99.90;;;;;;5093208;28;20047;-74
2023/07/27 11:02:44;;;;;;;0.93;0.93;;;19.20;99.90;;;;;;5092984;28;20036;-77
2023/07/27 11:05:12;;;;;;;0.30;0.30;;;19.20;99.90;;;;;;5091478;28;20044;-76
2023/07/27 11:07:40;;;;;;;0.10;0.10;;;19.40;99.90;;;;;;5072486;28;20393;-79
2023/07/27 11:10:10;;;;;;;0.30;0.30;;;19.40;99.90;;;;;;5071288;28;20033;-79
2023/07/27 11:12:49;;;;;;;0.80;0.28;;;19.30;99.90;;;;;;5072284;28;20067;-75
2023/07/27 11:15:22;;;;;;;0.38;0.32;;;19.50;99.90;;;;;;5072586;28;20028;-79
2023/07/27 11:17:49;;;;;;;1.23;0.52;;;19.40;99.90;;;;;;5072754;28;20040;-79
2023/07/27 11:20:18;;;;;;;0.22;0.22;;;19.40;99.90;;;;;;5072324;28;20016;-75
2023/07/27 11:22:45;;;;;;;0.25;0.25;;;19.50;99.90;;;;;;5071197;28;20033;-78
2023/07/27 11:25:12;;;;;;;0.47;0.47;;;19.30;99.90;;;;;;5072046;28;20036;-78
2023/07/27 11:27:38;;;;;;;0.20;0.20;;;19.40;99.90;;;;;;5072507;28;20019;-79
2023/07/27 11:30:09;;;;;;;0.75;0.50;;;19.50;99.90;;;;;;5072282;28;20041;-79
2023/07/27 11:32:35;;;;;;;0.50;0.50;;;19.40;99.90;;;;;;5072872;28;20036;-79
2023/07/27 11:35:01;;;;;;;0.30;0.25;;;19.40;99.90;;;;;;5078245;28;20024;-79
2023/07/27 11:37:30;;;;;;;1.13;0.40;;;19.70;99.90;;;;;;5073726;28;20027;-79
2023/07/27 11:39:56;;;;;;;3.58;0.30;;;19.60;99.90;;;;;;5076967;28;20025;-78
2023/07/27 11:42:26;;;;;;;0.20;0.20;;;19.50;99.90;;;;;;5074550;28;20031;-79
2023/07/27 11:44:52;;;;;;;0.82;0.82;;;19.50;99.90;;;;;;5073846;28;20029;-77
2023/07/27 11:47:18;;;;;;;0.13;0.13;;;19.50;99.90;;;;;;5081039;28;20208;-77
2023/07/27 11:49:44;;;;;;;2.33;0.77;;;19.50;99.90;;;;;;5091664;28;20052;-79
2023/07/27 11:52:10;;;;;;;1.65;0.70;;;19.40;99.90;;;;;;5091433;28;20044;-78
2023/07/27 11:54:40;;;;;;;0.40;0.40;;;19.50;99.90;;;;;;5091640;28;20047;-78
2023/07/27 11:57:06;;;;;;;0.10;0.10;;;19.50;99.90;;;;;;5090262;28;20048;-79
2023/07/27 11:59:31;;;;;;;0.28;0.28;;;19.40;99.90;;;;;;5091829;28;20024;-78
2023/07/27 12:01:58;;;;;;;0.60;0.60;;;19.50;99.90;;;;;;5091621;28;20405;-79
2023/07/27 12:04:26;;;;;;;0.30;0.30;;;19.40;99.90;;;;;;5094432;28;20039;-79
2023/07/27 12:06:54;;;;;;;0.52;0.50;;;19.60;99.90;;;;;;5084110;28;20020;-78
2023/07/27 12:09:20;;;;;;;0.77;0.55;;;19.80;99.90;;;;;;5095958;28;20082;-74
2023/07/27 12:11:46;;;;;;;0.75;0.75;;;19.60;99.90;;;;;;5095375;28;20024;-79
2023/07/27 12:14:11;;;;;;;0.00;0.00;;;19.70;99.90;;;;;;5096049;28;20039;-78
2023/07/27 12:16:45;;;;;;;0.20;0.20;;;19.60;99.90;;;;;;5095654;28;20044;-78
2023/07/27 12:19:11;;;;;;;1.27;0.75;;;19.60;99.90;;;;;;5082413;28;20092;-78
2023/07/27 12:21:40;;;;;;;0.65;0.52;;;19.50;99.90;;;;;;5094156;28;20468;-78
2023/07/27 12:24:10;;;;;;;1.27;0.80;;;19.30;99.90;;;;;;5095633;28;20103;-78
2023/07/27 12:26:36;;;;;;;0.20;0.20;;;19.30;99.90;;;;;;5095587;28;20023;-79
2023/07/27 12:29:02;;;;;;;0.30;0.30;;;19.50;99.90;;;;;;5095227;28;20035;-78
2023/07/27 12:31:28;;;;;;;0.90;0.77;;;19.40;99.90;;;;;;5095304;28;20537;-78
2023/07/27 12:33:54;;;;;;;0.70;0.57;;;19.50;99.90;;;;;;5094712;28;20071;-78
2023/07/27 12:36:20;;;;;;;0.40;0.38;;;19.40;99.90;;;;;;5095118;28;20077;-81
2023/07/27 12:38:46;;;;;;;1.10;0.75;;;19.50;99.90;;;;;;5094966;28;20060;-79
2023/07/27 12:41:13;;;;;;;0.10;0.10;;;19.50;99.90;;;;;;5095406;28;20039;-79
2023/07/27 12:43:39;;;;;;;0.43;0.43;;;19.50;99.90;;;;;;5095089;28;20058;-79
2023/07/27 12:46:05;;;;;;;0.10;0.10;;;19.80;99.90;;;;;;5093094;28;20034;-79
2023/07/27 12:48:31;;;;;;;0.30;0.30;;;19.80;99.90;;;;;;5090049;28;20027;-77